createdAt,value
2023-02-06T00:02:10.185Z,4.36
2023-02-06T00:04:37.656Z,4.36
2023-02-06T00:07:05.205Z,4.36
2023-02-06T00:09:32.649Z,4.35
2023-02-06T00:12:00.059Z,4.32
2023-02-06T00:14:27.535Z,4.30
2023-02-06T00:16:55.022Z,4.28
2023-02-06T00:19:22.474Z,4.24
2023-02-06T00:21:49.845Z,4.16
2023-02-06T00:24:17.305Z,4.20
2023-02-06T00:26:44.761Z,4.15
2023-02-06T00:29:12.207Z,4.14
2023-02-06T00:31:39.662Z,4.17
2023-02-06T00:34:07.172Z,4.23
2023-02-06T00:36:34.658Z,4.28
2023-02-06T00:39:02.134Z,4.26
2023-02-06T00:41:29.558Z,4.18
2023-02-06T00:43:57.019Z,4.17
2023-02-06T00:46:24.415Z,4.23
2023-02-06T00:48:51.845Z,4.22
2023-02-06T00:51:19.250Z,4.29
2023-02-06T00:53:46.618Z,4.32
2023-02-06T00:56:14.067Z,4.28
2023-02-06T00:58:41.567Z,4.31
2023-02-06T01:01:09.089Z,4.31
2023-02-06T01:03:36.577Z,4.29
2023-02-06T01:06:04.054Z,4.31
2023-02-06T01:08:31.469Z,4.33
2023-02-06T01:10:58.878Z,4.35
2023-02-06T01:13:26.318Z,4.34
2023-02-06T01:15:53.812Z,4.35
2023-02-06T01:18:21.265Z,4.39
2023-02-06T01:20:48.635Z,4.38
2023-02-06T01:23:16.014Z,4.40
2023-02-06T01:25:43.471Z,4.42
2023-02-06T01:28:10.941Z,4.46
2023-02-06T01:30:39.777Z,4.43
2023-02-06T01:33:07.299Z,4.41
2023-02-06T01:35:35.000Z,4.48
2023-02-06T01:38:02.591Z,4.54
2023-02-06T01:40:29.986Z,4.57
2023-02-06T01:42:57.395Z,4.38
2023-02-06T01:45:27.894Z,4.41
2023-02-06T01:47:57.424Z,4.36
2023-02-06T01:50:24.876Z,4.24
2023-02-06T01:52:52.372Z,4.22
2023-02-06T01:55:19.860Z,4.28
2023-02-06T01:57:47.310Z,4.33
2023-02-06T02:00:14.945Z,4.36
2023-02-06T02:02:48.273Z,4.28
2023-02-06T02:05:17.501Z,4.26
2023-02-06T02:08:01.157Z,4.30
2023-02-06T02:10:31.857Z,4.35
2023-02-06T02:12:59.359Z,4.37
2023-02-06T02:15:35.341Z,4.37
2023-02-06T02:18:25.669Z,4.39
2023-02-06T02:21:19.443Z,4.33
2023-02-06T02:23:51.834Z,4.38
2023-02-06T02:26:45.739Z,4.35
2023-02-06T02:29:13.095Z,4.32
2023-02-06T02:31:57.824Z,4.23
2023-02-06T02:34:45.893Z,4.28
2023-02-06T02:37:27.333Z,4.23
2023-02-06T02:40:07.809Z,4.16
2023-02-06T02:42:35.400Z,4.19
2023-02-06T02:45:10.447Z,4.24
2023-02-06T02:47:50.700Z,4.30
2023-02-06T02:50:19.239Z,4.30
2023-02-06T02:52:46.691Z,4.16
2023-02-06T02:55:18.402Z,4.25
2023-02-06T02:57:47.316Z,4.25
2023-02-06T03:00:16.013Z,4.24
2023-02-06T03:02:44.192Z,4.15
2023-02-06T03:05:13.854Z,4.06
2023-02-06T03:07:59.443Z,4.05
2023-02-06T03:10:29.641Z,4.10
2023-02-06T03:13:03.938Z,4.06
2023-02-06T03:15:34.709Z,4.13
2023-02-06T03:18:06.420Z,3.99
2023-02-06T03:20:34.134Z,3.86
2023-02-06T03:23:03.992Z,3.72
2023-02-06T03:25:36.496Z,3.83
2023-02-06T03:28:06.058Z,3.71
2023-02-06T03:30:33.994Z,3.59
2023-02-06T03:33:05.054Z,3.41
2023-02-06T03:35:34.847Z,3.41
2023-02-06T03:38:02.981Z,3.34
2023-02-06T03:40:30.862Z,3.43
2023-02-06T03:43:00.147Z,3.38
2023-02-06T03:45:30.969Z,3.33
2023-02-06T03:48:01.114Z,3.21
2023-02-06T03:50:28.765Z,3.25
2023-02-06T03:52:58.032Z,3.28
2023-02-06T03:55:25.606Z,3.20
2023-02-06T03:57:56.023Z,3.05
2023-02-06T04:00:23.910Z,3.01
2023-02-06T04:02:53.263Z,3.06
2023-02-06T04:05:21.088Z,3.07
2023-02-06T04:07:48.746Z,3.02
2023-02-06T04:10:16.295Z,2.94
2023-02-06T04:12:43.689Z,2.87
2023-02-06T04:15:11.202Z,2.94
2023-02-06T04:17:53.553Z,3.11
2023-02-06T04:20:25.288Z,2.82
2023-02-06T04:22:52.683Z,2.77
2023-02-06T04:25:20.128Z,2.60
2023-02-06T04:27:47.620Z,2.75
2023-02-06T04:30:15.921Z,2.75
2023-02-06T04:32:43.360Z,2.71
2023-02-06T04:35:10.890Z,2.73
2023-02-06T04:37:38.652Z,2.70
2023-02-06T04:40:06.380Z,2.68
2023-02-06T04:42:33.810Z,2.69
2023-02-06T04:45:01.224Z,2.61
2023-02-06T04:47:28.656Z,2.63
2023-02-06T04:49:56.105Z,2.60
2023-02-06T04:52:23.557Z,2.59
2023-02-06T04:54:51.005Z,2.54
2023-02-06T04:57:18.447Z,2.53
2023-02-06T04:59:45.898Z,2.50
2023-02-06T05:02:13.289Z,2.46
2023-02-06T05:04:40.762Z,2.42
2023-02-06T05:07:08.184Z,2.48
2023-02-06T05:09:35.666Z,2.44
2023-02-06T05:12:03.073Z,2.54
2023-02-06T05:14:30.502Z,2.54
2023-02-06T05:16:57.992Z,2.45
2023-02-06T05:19:25.384Z,2.45
2023-02-06T05:21:52.826Z,2.45
2023-02-06T05:24:20.261Z,2.38
2023-02-06T05:26:47.773Z,2.28
2023-02-06T05:29:15.158Z,2.24
2023-02-06T05:31:42.663Z,2.13
2023-02-06T05:34:10.863Z,2.06
2023-02-06T05:36:38.744Z,2.05
2023-02-06T05:39:06.186Z,2.06
2023-02-06T05:41:33.642Z,2.03
2023-02-06T05:44:01.045Z,2.04
2023-02-06T05:46:28.492Z,2.05
2023-02-06T05:48:55.957Z,2.12
2023-02-06T05:51:23.413Z,2.12
2023-02-06T05:53:50.860Z,2.12
2023-02-06T05:56:18.272Z,2.07
2023-02-06T05:58:45.703Z,2.19
2023-02-06T06:01:13.821Z,2.24
2023-02-06T06:03:41.311Z,2.25
2023-02-06T06:06:08.922Z,2.31
2023-02-06T06:08:36.468Z,2.35
2023-02-06T06:11:03.939Z,2.32
2023-02-06T06:13:31.468Z,2.34
2023-02-06T06:15:58.954Z,2.36
2023-02-06T06:18:26.363Z,2.40
2023-02-06T06:20:54.504Z,2.43
2023-02-06T06:23:21.922Z,2.48
2023-02-06T06:25:49.659Z,2.53
2023-02-06T06:28:17.196Z,2.56
2023-02-06T06:30:44.754Z,2.56
2023-02-06T06:33:14.180Z,2.50
2023-02-06T06:35:41.616Z,2.52
2023-02-06T06:38:09.231Z,2.48
2023-02-06T06:40:36.675Z,2.61
2023-02-06T06:43:04.576Z,2.66
2023-02-06T06:45:32.009Z,2.66
2023-02-06T06:47:59.568Z,2.52
2023-02-06T06:50:27.772Z,2.68
2023-02-06T06:52:55.198Z,2.71
2023-02-06T06:55:22.625Z,2.68
2023-02-06T06:57:50.060Z,2.79
2023-02-06T07:00:17.634Z,2.83
2023-02-06T07:02:45.219Z,2.85
2023-02-06T07:05:12.838Z,2.90
2023-02-06T07:07:40.385Z,2.84
2023-02-06T07:10:08.680Z,2.89
2023-02-06T07:12:36.116Z,2.82
2023-02-06T07:15:03.613Z,2.83
2023-02-06T07:17:31.079Z,2.70
2023-02-06T07:19:59.356Z,2.74
2023-02-06T07:22:27.029Z,2.78
2023-02-06T07:24:55.108Z,2.79
2023-02-06T07:27:22.496Z,2.80
2023-02-06T07:29:49.977Z,2.82
2023-02-06T07:32:17.378Z,2.82
2023-02-06T07:34:44.774Z,2.83
2023-02-06T07:37:12.267Z,2.87
2023-02-06T07:39:39.672Z,2.92
2023-02-06T07:42:08.104Z,2.92
2023-02-06T07:44:35.577Z,2.94
2023-02-06T07:47:03.060Z,3.01
2023-02-06T07:49:30.501Z,3.06
2023-02-06T07:51:57.896Z,3.18
2023-02-06T07:54:25.464Z,3.21
2023-02-06T07:56:53.034Z,3.25
2023-02-06T07:59:20.661Z,3.40
2023-02-06T08:01:48.110Z,3.43
2023-02-06T08:04:15.642Z,3.52
2023-02-06T08:06:43.910Z,3.62
2023-02-06T08:09:17.137Z,3.68
2023-02-06T08:11:44.844Z,3.74
2023-02-06T08:14:12.402Z,3.83
2023-02-06T08:16:40.314Z,3.88
2023-02-06T08:19:10.881Z,3.92
2023-02-06T08:21:38.672Z,4.00
2023-02-06T08:24:06.239Z,4.03
2023-02-06T08:26:33.695Z,4.13
2023-02-06T08:29:02.647Z,4.18
2023-02-06T08:31:37.700Z,4.21
2023-02-06T08:34:05.920Z,4.23
2023-02-06T08:36:34.035Z,4.28
2023-02-06T08:39:02.533Z,4.33
2023-02-06T08:41:31.435Z,4.32
2023-02-06T08:44:00.714Z,4.39
2023-02-06T08:46:29.499Z,4.47
2023-02-06T08:48:57.700Z,4.38
2023-02-06T08:51:27.836Z,4.51
2023-02-06T08:53:59.030Z,4.59
2023-02-06T08:56:26.797Z,4.69
2023-02-06T08:58:54.674Z,4.72
2023-02-06T09:01:22.444Z,4.76
2023-02-06T09:03:49.900Z,4.87
2023-02-06T09:06:17.659Z,4.87
2023-02-06T09:08:45.131Z,4.89
2023-02-06T09:11:15.689Z,4.84
2023-02-06T09:13:43.492Z,4.95
2023-02-06T09:16:10.971Z,4.99
2023-02-06T09:18:38.811Z,5.07
2023-02-06T09:21:11.540Z,5.14
2023-02-06T09:23:40.136Z,5.21
2023-02-06T09:26:07.840Z,5.19
2023-02-06T09:28:35.278Z,5.30
2023-02-06T09:31:02.999Z,5.40
2023-02-06T09:33:31.010Z,5.40
2023-02-06T09:36:15.203Z,5.48
2023-02-06T09:38:43.997Z,5.60
2023-02-06T09:41:18.558Z,5.74
2023-02-06T09:43:58.101Z,5.88
2023-02-06T09:46:28.129Z,5.87
2023-02-06T09:48:58.178Z,6.02
2023-02-06T09:51:43.533Z,6.09
2023-02-06T09:54:17.642Z,6.16
2023-02-06T09:56:47.886Z,6.36
2023-02-06T09:59:17.593Z,6.18
2023-02-06T10:02:08.732Z,6.39
2023-02-06T10:04:43.613Z,6.48
2023-02-06T10:07:17.241Z,6.57
2023-02-06T10:09:51.170Z,6.48
2023-02-06T10:12:47.862Z,6.85
2023-02-06T10:15:47.828Z,7.10
2023-02-06T10:18:24.940Z,7.43
2023-02-06T10:20:56.160Z,7.39
2023-02-06T10:23:42.756Z,7.45
2023-02-06T10:26:17.637Z,7.52
2023-02-06T10:28:49.782Z,7.60
2023-02-06T10:31:17.289Z,7.50
2023-02-06T10:34:01.102Z,7.30
2023-02-06T10:36:47.247Z,7.56
2023-02-06T10:39:20.996Z,8.30
2023-02-06T10:41:48.629Z,8.34
2023-02-06T10:44:27.095Z,8.36
2023-02-06T10:46:55.964Z,8.85
2023-02-06T10:49:35.709Z,9.02
2023-02-06T10:52:07.972Z,8.94
2023-02-06T10:54:40.971Z,9.11
2023-02-06T10:57:17.076Z,8.94
2023-02-06T10:59:47.988Z,9.15
2023-02-06T11:02:31.569Z,9.38
2023-02-06T11:05:05.312Z,9.57
2023-02-06T11:07:37.637Z,9.38
2023-02-06T11:10:05.746Z,8.95
2023-02-06T11:12:43.488Z,9.36
2023-02-06T11:15:33.942Z,9.25
2023-02-06T11:18:03.220Z,9.46
2023-02-06T11:20:33.273Z,9.29
2023-02-06T11:23:14.911Z,9.46
2023-02-06T11:25:42.891Z,9.08
2023-02-06T11:28:14.582Z,9.24
2023-02-06T11:30:43.926Z,9.56
2023-02-06T11:33:30.310Z,9.65
2023-02-06T11:36:01.335Z,9.44
2023-02-06T11:38:30.142Z,9.54
2023-02-06T11:40:57.592Z,9.46
2023-02-06T11:43:26.271Z,9.35
2023-02-06T11:46:06.832Z,9.52
2023-02-06T11:48:36.777Z,9.13
2023-02-06T11:51:05.233Z,9.11
2023-02-06T11:53:32.909Z,8.78
2023-02-06T11:56:26.756Z,8.75
2023-02-06T11:59:04.965Z,8.48
2023-02-06T12:01:48.633Z,8.49
2023-02-06T12:04:23.619Z,8.71
2023-02-06T12:06:55.972Z,8.49
2023-02-06T12:09:23.435Z,8.76
2023-02-06T12:11:56.925Z,8.65
2023-02-06T12:14:36.322Z,8.83
2023-02-06T12:17:04.449Z,9.69
2023-02-06T12:19:45.421Z,10.33
2023-02-06T12:22:14.875Z,10.84
2023-02-06T12:24:45.188Z,10.29
2023-02-06T12:27:20.793Z,10.23
2023-02-06T12:29:54.432Z,9.99
2023-02-06T12:32:25.223Z,9.64
2023-02-06T12:34:54.383Z,9.45
2023-02-06T12:37:42.478Z,9.30
2023-02-06T12:40:17.290Z,9.44
2023-02-06T12:42:48.452Z,9.85
2023-02-06T12:45:28.158Z,9.89
2023-02-06T12:48:00.280Z,10.43
2023-02-06T12:50:29.645Z,10.60
2023-02-06T12:53:03.535Z,10.87
2023-02-06T12:55:36.230Z,10.91
2023-02-06T12:58:04.563Z,11.19
2023-02-06T13:00:44.936Z,10.66
2023-02-06T13:03:18.634Z,10.42
2023-02-06T13:05:47.968Z,9.81
2023-02-06T13:08:17.592Z,9.80
2023-02-06T13:10:45.255Z,9.73
2023-02-06T13:13:30.187Z,9.63
2023-02-06T13:16:00.542Z,9.11
2023-02-06T13:18:40.252Z,8.99
2023-02-06T13:21:16.749Z,8.80
2023-02-06T13:24:13.467Z,8.57
2023-02-06T13:27:01.884Z,9.02
2023-02-06T13:29:30.125Z,9.27
2023-02-06T13:32:22.790Z,9.63
2023-02-06T13:34:50.513Z,9.60
2023-02-06T13:37:26.989Z,10.03
2023-02-06T13:40:13.105Z,10.03
2023-02-06T13:42:40.547Z,9.89
2023-02-06T13:45:11.438Z,9.59
2023-02-06T13:47:50.964Z,9.42
2023-02-06T13:50:21.276Z,9.46
2023-02-06T13:52:51.530Z,8.52
2023-02-06T13:55:30.127Z,8.71
2023-02-06T13:57:58.290Z,8.47
2023-02-06T14:00:28.854Z,8.52
2023-02-06T14:03:07.252Z,8.70
2023-02-06T14:05:53.558Z,8.57
2023-02-06T14:08:40.319Z,8.75
2023-02-06T14:11:18.702Z,9.05
2023-02-06T14:14:05.293Z,9.25
2023-02-06T14:16:41.965Z,9.37
2023-02-06T14:19:32.211Z,9.33
2023-02-06T14:22:06.991Z,9.32
2023-02-06T14:24:44.500Z,9.06
2023-02-06T14:27:14.950Z,8.79
2023-02-06T14:29:48.710Z,8.91
2023-02-06T14:32:34.709Z,8.78
2023-02-06T14:35:28.101Z,8.73
2023-02-06T14:37:58.540Z,8.77
2023-02-06T14:40:27.879Z,8.70
2023-02-06T14:42:57.823Z,8.46
2023-02-06T14:45:33.749Z,8.65
2023-02-06T14:48:07.228Z,8.73
2023-02-06T14:50:36.851Z,8.38
2023-02-06T14:53:23.240Z,8.48
2023-02-06T14:55:50.747Z,8.51
2023-02-06T14:58:21.700Z,8.51
2023-02-06T15:00:49.103Z,8.32
2023-02-06T15:03:17.980Z,8.26
2023-02-06T15:05:45.946Z,8.15
2023-02-06T15:08:17.610Z,8.25
2023-02-06T15:10:45.190Z,7.95
2023-02-06T15:13:22.743Z,7.97
2023-02-06T15:15:54.851Z,8.01
2023-02-06T15:18:22.638Z,7.93
2023-02-06T15:20:55.203Z,7.64
2023-02-06T15:23:22.635Z,7.57
2023-02-06T15:25:50.073Z,7.52
2023-02-06T15:28:19.982Z,7.44
2023-02-06T15:30:48.299Z,7.39
2023-02-06T15:33:22.785Z,7.38
2023-02-06T15:35:54.761Z,7.45
2023-02-06T15:38:23.685Z,7.33
2023-02-06T15:40:53.919Z,7.29
2023-02-06T15:43:24.591Z,7.30
2023-02-06T15:45:53.020Z,7.28
2023-02-06T15:48:34.865Z,7.42
2023-02-06T15:51:22.629Z,7.31
2023-02-06T15:53:51.035Z,7.36
2023-02-06T15:56:21.440Z,7.33
2023-02-06T15:58:55.203Z,7.36
2023-02-06T16:01:22.662Z,7.30
2023-02-06T16:03:53.227Z,7.32
2023-02-06T16:06:20.811Z,7.44
2023-02-06T16:08:53.218Z,7.34
2023-02-06T16:11:38.108Z,7.51
2023-02-06T16:14:05.809Z,7.52
2023-02-06T16:16:33.715Z,7.48
2023-02-06T16:19:01.254Z,7.46
2023-02-06T16:21:34.584Z,7.40
2023-02-06T16:24:03.380Z,7.40
2023-02-06T16:26:40.084Z,7.30
2023-02-06T16:29:10.357Z,7.34
2023-02-06T16:31:39.193Z,7.28
2023-02-06T16:34:25.713Z,7.19
2023-02-06T16:36:53.202Z,7.02
2023-02-06T16:39:22.001Z,7.19
2023-02-06T16:41:51.946Z,7.27
2023-02-06T16:44:20.384Z,7.27
2023-02-06T16:46:47.954Z,7.21
2023-02-06T16:49:21.580Z,7.22
2023-02-06T16:51:50.551Z,7.19
2023-02-06T16:54:26.062Z,7.14
2023-02-06T16:56:57.520Z,7.09
2023-02-06T16:59:24.938Z,6.92
2023-02-06T17:01:52.378Z,7.04
2023-02-06T17:04:19.993Z,7.04
2023-02-06T17:06:47.609Z,7.08
2023-02-06T17:09:18.390Z,6.84
2023-02-06T17:11:45.856Z,6.71
2023-02-06T17:14:13.301Z,6.74
2023-02-06T17:16:40.778Z,6.70
2023-02-06T17:19:08.193Z,6.69
2023-02-06T17:21:36.255Z,6.71
2023-02-06T17:24:03.797Z,6.71
2023-02-06T17:26:31.323Z,6.72
2023-02-06T17:28:58.854Z,6.74
2023-02-06T17:31:26.451Z,6.70
2023-02-06T17:33:54.358Z,6.66
2023-02-06T17:36:29.205Z,6.65
2023-02-06T17:38:58.810Z,6.55
2023-02-06T17:41:27.162Z,6.61
2023-02-06T17:43:54.617Z,6.59
2023-02-06T17:46:22.090Z,6.48
2023-02-06T17:48:49.802Z,6.44
2023-02-06T17:51:17.213Z,6.43
2023-02-06T17:53:44.700Z,6.42
2023-02-06T17:56:13.187Z,6.43
2023-02-06T17:58:44.051Z,6.34
2023-02-06T18:01:12.802Z,6.24
2023-02-06T18:03:40.496Z,6.17
2023-02-06T18:06:08.391Z,6.13
2023-02-06T18:08:35.939Z,6.08
2023-02-06T18:11:08.276Z,6.04
2023-02-06T18:13:35.837Z,5.99
2023-02-06T18:16:03.478Z,5.91
2023-02-06T18:18:31.612Z,5.81
2023-02-06T18:20:59.354Z,5.66
2023-02-06T18:23:26.868Z,5.56
2023-02-06T18:25:54.246Z,5.48
2023-02-06T18:28:21.730Z,5.45
2023-02-06T18:30:49.265Z,5.44
2023-02-06T18:33:16.722Z,5.43
2023-02-06T18:35:46.380Z,5.32
2023-02-06T18:38:15.117Z,5.32
2023-02-06T18:40:43.002Z,5.29
2023-02-06T18:43:09.821Z,5.22
2023-02-06T18:45:38.245Z,5.20
2023-02-06T18:48:07.491Z,5.20
2023-02-06T18:50:36.331Z,5.14
2023-02-06T18:53:04.352Z,5.13
2023-02-06T18:55:34.816Z,5.16
2023-02-06T18:58:02.760Z,5.07
2023-02-06T19:00:30.352Z,5.04
2023-02-06T19:03:00.568Z,4.97
2023-02-06T19:05:29.052Z,5.02
2023-02-06T19:07:56.471Z,4.90
2023-02-06T19:10:25.770Z,4.87
2023-02-06T19:12:53.196Z,4.73
2023-02-06T19:15:20.787Z,4.57
2023-02-06T19:17:49.385Z,4.68
2023-02-06T19:20:17.114Z,4.51
2023-02-06T19:22:44.547Z,4.39
2023-02-06T19:25:14.422Z,4.29
2023-02-06T19:27:42.276Z,4.25
2023-02-06T19:30:10.110Z,4.11
2023-02-06T19:32:37.628Z,4.04
2023-02-06T19:35:05.417Z,3.99
2023-02-06T19:37:32.876Z,3.97
2023-02-06T19:40:00.602Z,3.96
2023-02-06T19:42:28.477Z,3.90
2023-02-06T19:44:56.125Z,3.84
2023-02-06T19:47:23.938Z,3.81
2023-02-06T19:49:53.163Z,3.73
2023-02-06T19:52:21.177Z,3.72
2023-02-06T19:54:48.953Z,3.74
2023-02-06T19:57:19.400Z,3.74
2023-02-06T19:59:47.225Z,3.80
2023-02-06T20:02:15.810Z,3.80
2023-02-06T20:04:45.317Z,3.76
2023-02-06T20:07:13.384Z,3.77
2023-02-06T20:09:42.071Z,3.69
2023-02-06T20:12:13.559Z,3.68
2023-02-06T20:14:41.294Z,3.62
2023-02-06T20:17:09.155Z,3.72
2023-02-06T20:19:37.024Z,3.76
2023-02-06T20:22:04.817Z,3.87
2023-02-06T20:24:33.171Z,3.83
2023-02-06T20:27:03.342Z,3.82
2023-02-06T20:29:32.916Z,3.69
2023-02-06T20:32:01.514Z,3.68
2023-02-06T20:34:29.917Z,3.59
2023-02-06T20:36:58.049Z,3.59
2023-02-06T20:39:26.251Z,3.53
2023-02-06T20:41:54.534Z,3.56
2023-02-06T20:44:22.357Z,3.55
2023-02-06T20:46:50.125Z,3.48
2023-02-06T20:49:19.144Z,3.43
2023-02-06T20:51:46.906Z,3.34
2023-02-06T20:54:14.660Z,3.29
2023-02-06T20:56:42.862Z,3.16
2023-02-06T20:59:13.560Z,3.14
2023-02-06T21:01:48.048Z,3.00
2023-02-06T21:04:17.467Z,2.88
2023-02-06T21:06:48.195Z,2.89
2023-02-06T21:09:16.885Z,2.71
2023-02-06T21:11:46.648Z,2.68
2023-02-06T21:14:15.892Z,2.68
2023-02-06T21:16:43.755Z,2.70
2023-02-06T21:19:11.833Z,2.58
2023-02-06T21:21:40.081Z,2.61
2023-02-06T21:24:08.637Z,2.63
2023-02-06T21:26:36.423Z,2.47
2023-02-06T21:29:04.380Z,2.45
2023-02-06T21:31:36.930Z,2.50
2023-02-06T21:34:09.766Z,2.53
2023-02-06T21:36:38.214Z,2.50
2023-02-06T21:39:05.787Z,2.49
2023-02-06T21:41:33.399Z,2.44
2023-02-06T21:44:00.835Z,2.39
2023-02-06T21:46:30.653Z,2.37
2023-02-06T21:48:58.448Z,2.34
2023-02-06T21:51:25.890Z,2.28
2023-02-06T21:53:53.341Z,2.26
2023-02-06T21:56:24.651Z,2.23
2023-02-06T21:58:52.272Z,2.29
2023-02-06T22:01:21.393Z,2.36
2023-02-06T22:03:49.475Z,2.33
2023-02-06T22:06:19.768Z,2.26
2023-02-06T22:08:51.416Z,2.24
2023-02-06T22:11:21.125Z,2.21
2023-02-06T22:13:48.973Z,2.06
2023-02-06T22:16:17.711Z,2.07
2023-02-06T22:18:45.177Z,2.07
2023-02-06T22:21:14.211Z,2.12
2023-02-06T22:23:42.237Z,2.08
2023-02-06T22:26:10.929Z,2.08
2023-02-06T22:28:38.467Z,1.98
2023-02-06T22:31:10.225Z,1.97
2023-02-06T22:33:38.324Z,1.95
2023-02-06T22:36:09.656Z,1.91
2023-02-06T22:38:37.833Z,1.93
2023-02-06T22:41:06.994Z,1.95
2023-02-06T22:43:35.371Z,1.92
2023-02-06T22:46:02.947Z,1.96
2023-02-06T22:48:30.504Z,1.90
2023-02-06T22:50:58.033Z,1.86
2023-02-06T22:53:31.961Z,1.95
2023-02-06T22:56:17.499Z,1.93
2023-02-06T22:58:45.236Z,1.99
2023-02-06T23:01:13.022Z,2.02
2023-02-06T23:03:40.569Z,2.03
2023-02-06T23:06:08.999Z,2.00
2023-02-06T23:08:36.865Z,2.08
2023-02-06T23:11:05.306Z,2.04
2023-02-06T23:13:33.228Z,1.89
2023-02-06T23:16:00.662Z,1.89
2023-02-06T23:18:28.574Z,1.93
2023-02-06T23:20:56.003Z,1.92
2023-02-06T23:23:23.750Z,1.99
2023-02-06T23:25:52.404Z,2.02
2023-02-06T23:28:23.528Z,1.96
2023-02-06T23:30:51.414Z,2.08
2023-02-06T23:33:19.275Z,1.98
2023-02-06T23:35:46.673Z,1.91
2023-02-06T23:38:14.146Z,1.87
2023-02-06T23:40:41.536Z,1.86
2023-02-06T23:43:08.971Z,1.82
2023-02-06T23:45:36.700Z,1.73
2023-02-06T23:48:04.407Z,1.74
2023-02-06T23:50:31.946Z,1.68
2023-02-06T23:52:59.364Z,1.63
2023-02-06T23:55:28.409Z,1.60
2023-02-06T23:57:55.842Z,1.54
